createdAt,value
2022-10-17T00:00:39.289Z,16.55
2022-10-17T00:03:08.629Z,16.56
2022-10-17T00:05:41.331Z,16.48
2022-10-17T00:08:09.826Z,16.41
2022-10-17T00:10:38.188Z,16.39
2022-10-17T00:13:06.851Z,16.34
2022-10-17T00:15:34.880Z,16.30
2022-10-17T00:18:03.212Z,16.28
2022-10-17T00:20:32.967Z,16.26
2022-10-17T00:23:00.878Z,16.27
2022-10-17T00:25:28.971Z,16.30
2022-10-17T00:27:56.913Z,16.30
2022-10-17T00:30:25.027Z,16.28
2022-10-17T00:32:52.973Z,16.29
2022-10-17T00:35:20.913Z,16.29
2022-10-17T00:37:51.065Z,16.26
2022-10-17T00:40:19.535Z,16.19
2022-10-17T00:42:51.298Z,16.16
2022-10-17T00:45:24.320Z,16.17
2022-10-17T00:47:57.184Z,16.16
2022-10-17T00:50:25.902Z,16.15
2022-10-17T00:52:59.321Z,16.12
2022-10-17T00:55:31.667Z,16.12
2022-10-17T00:58:03.679Z,16.07
2022-10-17T01:00:32.355Z,16.08
2022-10-17T01:03:00.577Z,16.12
2022-10-17T01:05:28.657Z,16.17
2022-10-17T01:07:58.246Z,16.21
2022-10-17T01:10:34.212Z,16.21
2022-10-17T01:13:09.720Z,16.16
2022-10-17T01:15:50.498Z,16.08
2022-10-17T01:18:31.589Z,16.06
2022-10-17T01:21:29.625Z,16.03
2022-10-17T01:24:50.528Z,15.92
2022-10-17T01:27:44.433Z,15.89
2022-10-17T01:30:57.359Z,15.87
2022-10-17T01:33:47.853Z,15.85
2022-10-17T01:36:26.194Z,15.82
2022-10-17T01:39:00.764Z,15.81
2022-10-17T01:41:38.661Z,15.78
2022-10-17T01:44:13.618Z,15.78
2022-10-17T01:46:44.925Z,15.80
2022-10-17T01:49:18.420Z,15.80
2022-10-17T01:51:50.613Z,15.79
2022-10-17T01:54:24.367Z,15.80
2022-10-17T01:56:58.560Z,15.81
2022-10-17T01:59:31.037Z,15.78
2022-10-17T02:02:00.500Z,15.74
2022-10-17T02:04:30.295Z,15.76
2022-10-17T02:06:58.523Z,15.74
2022-10-17T02:09:28.314Z,15.70
2022-10-17T02:12:12.852Z,15.73
2022-10-17T02:14:53.387Z,15.71
2022-10-17T02:17:33.900Z,15.69
2022-10-17T02:20:11.768Z,15.72
2022-10-17T02:22:48.669Z,15.69
2022-10-17T02:25:24.969Z,15.72
2022-10-17T02:28:02.090Z,15.70
2022-10-17T02:30:35.580Z,15.70
2022-10-17T02:33:11.294Z,15.63
2022-10-17T02:35:47.498Z,15.60
2022-10-17T02:38:16.070Z,15.58
2022-10-17T02:40:47.595Z,15.62
2022-10-17T02:43:16.296Z,15.60
2022-10-17T02:45:44.298Z,15.59
2022-10-17T02:48:19.727Z,15.59
2022-10-17T02:50:59.424Z,15.52
2022-10-17T02:53:37.761Z,15.54
2022-10-17T02:56:14.175Z,15.54
2022-10-17T02:58:47.355Z,15.60
2022-10-17T03:01:16.901Z,15.60
2022-10-17T03:03:44.921Z,15.59
2022-10-17T03:06:14.323Z,15.55
2022-10-17T03:08:42.265Z,15.53
2022-10-17T03:11:10.290Z,15.52
2022-10-17T03:13:39.862Z,15.53
2022-10-17T03:16:08.584Z,15.53
2022-10-17T03:18:37.340Z,15.52
2022-10-17T03:21:05.963Z,15.51
2022-10-17T03:23:36.163Z,15.50
2022-10-17T03:26:06.570Z,15.52
2022-10-17T03:28:36.058Z,15.57
2022-10-17T03:31:08.541Z,15.60
2022-10-17T03:33:37.965Z,15.62
2022-10-17T03:36:09.697Z,15.57
2022-10-17T03:38:39.783Z,15.40
2022-10-17T03:41:08.715Z,15.38
2022-10-17T03:43:38.547Z,15.45
2022-10-17T03:46:08.146Z,15.41
2022-10-17T03:48:37.382Z,15.29
2022-10-17T03:51:08.352Z,15.13
2022-10-17T03:53:43.512Z,15.08
2022-10-17T03:56:13.813Z,15.15
2022-10-17T03:58:43.053Z,15.19
2022-10-17T04:01:14.092Z,15.25
2022-10-17T04:03:42.632Z,15.25
2022-10-17T04:06:12.852Z,15.24
2022-10-17T04:08:45.288Z,15.22
2022-10-17T04:11:21.316Z,15.21
2022-10-17T04:13:55.004Z,15.24
2022-10-17T04:16:25.689Z,15.18
2022-10-17T04:19:01.733Z,14.96
2022-10-17T04:21:36.118Z,15.00
2022-10-17T04:24:12.627Z,15.02
2022-10-17T04:26:50.072Z,15.03
2022-10-17T04:29:18.528Z,15.02
2022-10-17T04:31:52.307Z,15.01
2022-10-17T04:34:35.173Z,14.96
2022-10-17T04:37:03.235Z,14.98
2022-10-17T04:39:32.697Z,15.04
2022-10-17T04:42:00.724Z,14.98
2022-10-17T04:44:30.937Z,14.94
2022-10-17T04:46:59.953Z,14.94
2022-10-17T04:49:28.577Z,15.03
2022-10-17T04:52:01.963Z,15.00
2022-10-17T04:54:42.892Z,15.01
2022-10-17T04:57:12.470Z,14.98
2022-10-17T04:59:42.102Z,14.96
2022-10-17T05:02:22.184Z,14.99
2022-10-17T05:04:50.206Z,14.99
2022-10-17T05:07:18.600Z,14.99
2022-10-17T05:09:47.883Z,15.01
2022-10-17T05:12:18.139Z,15.02
2022-10-17T05:14:47.136Z,15.01
2022-10-17T05:17:15.617Z,15.02
2022-10-17T05:19:43.507Z,15.03
2022-10-17T05:22:11.437Z,14.99
2022-10-17T05:24:40.572Z,14.74
2022-10-17T05:27:11.210Z,14.64
2022-10-17T05:29:39.765Z,14.72
2022-10-17T05:32:16.287Z,14.72
2022-10-17T05:34:44.481Z,14.73
2022-10-17T05:37:12.717Z,14.75
2022-10-17T05:39:45.845Z,14.74
2022-10-17T05:42:17.310Z,14.80
2022-10-17T05:44:46.570Z,14.83
2022-10-17T05:47:17.227Z,14.80
2022-10-17T05:49:49.982Z,14.79
2022-10-17T05:52:24.563Z,14.78
2022-10-17T05:55:00.836Z,14.82
2022-10-17T05:57:30.233Z,14.74
2022-10-17T05:59:59.149Z,14.68
2022-10-17T06:02:28.364Z,14.75
2022-10-17T06:04:57.216Z,14.76
2022-10-17T06:07:25.720Z,14.78
2022-10-17T06:09:54.281Z,14.80
2022-10-17T06:12:24.696Z,14.80
2022-10-17T06:14:54.196Z,14.77
2022-10-17T06:17:22.344Z,14.77
2022-10-17T06:19:50.290Z,14.90
2022-10-17T06:22:18.295Z,14.91
2022-10-17T06:24:47.751Z,14.89
2022-10-17T06:27:15.918Z,14.83
2022-10-17T06:29:43.865Z,14.80
2022-10-17T06:32:15.113Z,14.83
2022-10-17T06:34:54.452Z,14.81
2022-10-17T06:37:22.579Z,14.84
2022-10-17T06:39:50.690Z,14.91
2022-10-17T06:42:22.176Z,14.97
2022-10-17T06:45:03.268Z,14.99
2022-10-17T06:47:55.468Z,15.05
2022-10-17T06:50:37.753Z,15.13
2022-10-17T06:53:12.313Z,15.25
2022-10-17T06:56:03.038Z,15.27
2022-10-17T06:58:47.704Z,15.27
2022-10-17T07:01:32.625Z,15.34
2022-10-17T07:04:03.161Z,15.35
2022-10-17T07:06:32.601Z,15.39
2022-10-17T07:09:07.662Z,15.42
2022-10-17T07:11:40.259Z,15.33
2022-10-17T07:14:08.663Z,15.31
2022-10-17T07:16:37.114Z,15.36
2022-10-17T07:19:20.648Z,15.39
2022-10-17T07:21:49.097Z,15.46
2022-10-17T07:24:17.496Z,15.50
2022-10-17T07:26:53.528Z,15.58
2022-10-17T07:29:21.784Z,15.67
2022-10-17T07:32:04.029Z,15.77
2022-10-17T07:34:34.545Z,15.90
2022-10-17T07:37:03.301Z,15.96
2022-10-17T07:39:31.285Z,16.01
2022-10-17T07:41:59.973Z,16.04
2022-10-17T07:44:27.955Z,15.99
2022-10-17T07:46:55.923Z,15.91
2022-10-17T07:49:23.927Z,15.91
2022-10-17T07:51:54.060Z,15.93
2022-10-17T07:54:22.021Z,15.98
2022-10-17T07:56:50.761Z,16.06
2022-10-17T07:59:19.210Z,16.13
2022-10-17T08:01:47.168Z,16.25
2022-10-17T08:04:16.843Z,16.31
2022-10-17T08:06:45.167Z,16.36
2022-10-17T08:09:14.497Z,16.37
2022-10-17T08:11:43.992Z,16.39
2022-10-17T08:14:12.472Z,16.43
2022-10-17T08:16:40.767Z,16.50
2022-10-17T08:21:43.638Z,16.67
2022-10-17T08:24:11.597Z,16.72
2022-10-17T08:26:43.429Z,16.77
2022-10-17T08:29:14.727Z,16.78
2022-10-17T08:31:46.455Z,16.72
2022-10-17T08:34:16.662Z,16.62
2022-10-17T08:36:44.587Z,16.70
2022-10-17T08:39:12.591Z,16.79
2022-10-17T08:42:03.834Z,16.82
2022-10-17T08:44:41.801Z,16.83
2022-10-17T08:47:15.666Z,16.81
2022-10-17T08:49:51.460Z,16.91
2022-10-17T08:52:27.432Z,17.03
2022-10-17T08:54:55.468Z,17.16
2022-10-17T08:57:24.853Z,17.30
2022-10-17T08:59:55.352Z,17.41
2022-10-17T09:02:50.074Z,17.51
2022-10-17T09:05:28.342Z,17.58
2022-10-17T09:08:18.555Z,17.68
2022-10-17T09:10:56.969Z,17.74
2022-10-17T09:13:38.623Z,17.78
2022-10-17T09:16:30.036Z,17.86
2022-10-17T09:19:04.255Z,17.89
2022-10-17T09:21:43.142Z,17.90
2022-10-17T09:24:16.242Z,17.94
2022-10-17T09:26:46.930Z,18.03
2022-10-17T09:29:24.148Z,18.08
2022-10-17T09:32:03.970Z,18.04
2022-10-17T09:34:33.959Z,17.97
2022-10-17T09:37:03.573Z,17.94
2022-10-17T09:39:32.133Z,17.91
2022-10-17T09:42:01.734Z,17.87
2022-10-17T09:44:34.278Z,17.81
2022-10-17T09:47:14.094Z,17.84
2022-10-17T09:49:43.875Z,17.80
2022-10-17T09:52:16.495Z,17.78
2022-10-17T09:54:47.854Z,17.86
2022-10-17T09:57:17.184Z,17.98
2022-10-17T09:59:48.916Z,18.06
2022-10-17T10:02:22.759Z,18.19
2022-10-17T10:05:04.707Z,18.25
2022-10-17T10:07:35.836Z,18.30
2022-10-17T10:10:07.152Z,18.32
2022-10-17T10:12:38.878Z,18.37
2022-10-17T10:15:37.774Z,18.44
2022-10-17T10:21:08.532Z,18.46
2022-10-17T10:23:40.096Z,18.47
2022-10-17T10:26:21.668Z,18.50
2022-10-17T10:29:01.928Z,18.66
2022-10-17T10:31:34.848Z,18.75
2022-10-17T10:34:14.264Z,18.83
2022-10-17T10:36:48.613Z,18.89
2022-10-17T10:39:36.291Z,18.96
2022-10-17T10:42:07.483Z,19.04
2022-10-17T10:44:40.781Z,19.14
2022-10-17T10:47:22.583Z,19.20
2022-10-17T10:49:53.732Z,19.30
2022-10-17T10:52:31.403Z,19.34
2022-10-17T10:55:06.259Z,19.40
2022-10-17T10:57:37.605Z,19.44
2022-10-17T11:00:15.673Z,19.50
2022-10-17T11:02:53.847Z,19.59
2022-10-17T11:05:37.502Z,19.65
2022-10-17T11:08:12.957Z,19.71
2022-10-17T11:10:45.725Z,19.78
2022-10-17T11:13:19.070Z,19.80
2022-10-17T11:15:50.387Z,19.84
2022-10-17T11:18:25.674Z,19.79
2022-10-17T11:20:58.194Z,19.81
2022-10-17T11:23:35.492Z,19.91
2022-10-17T11:26:08.352Z,19.97
2022-10-17T11:28:36.458Z,19.93
2022-10-17T11:31:08.105Z,19.97
2022-10-17T11:33:46.681Z,19.92
2022-10-17T11:36:17.923Z,20.02
2022-10-17T11:38:51.914Z,20.12
2022-10-17T11:41:24.083Z,20.20
2022-10-17T11:43:55.843Z,20.16
2022-10-17T11:46:26.151Z,20.16
2022-10-17T11:49:06.892Z,20.31
2022-10-17T11:52:01.644Z,20.44
2022-10-17T11:54:34.782Z,20.55
2022-10-17T11:57:16.594Z,20.61
2022-10-17T12:00:01.852Z,20.67
2022-10-17T12:02:39.890Z,20.59
2022-10-17T12:05:22.964Z,20.68
2022-10-17T12:07:57.777Z,20.73
2022-10-17T12:10:36.305Z,20.81
2022-10-17T12:13:43.747Z,20.80
2022-10-17T12:16:43.898Z,20.86
2022-10-17T12:19:25.679Z,20.78
2022-10-17T12:22:00.428Z,20.80
2022-10-17T12:24:35.697Z,20.86
2022-10-17T12:27:32.753Z,20.85
2022-10-17T12:30:02.729Z,20.98
2022-10-17T12:32:47.011Z,21.03
2022-10-17T12:35:23.330Z,21.05
2022-10-17T12:38:20.712Z,21.15
2022-10-17T12:40:56.767Z,21.18
2022-10-17T12:43:58.489Z,21.27
2022-10-17T12:46:48.519Z,21.23
2022-10-17T12:49:42.515Z,21.25
2022-10-17T12:52:36.782Z,21.33
2022-10-17T12:55:14.697Z,21.45
2022-10-17T12:57:50.210Z,21.44
2022-10-17T13:00:23.227Z,21.39
2022-10-17T13:02:55.657Z,21.47
2022-10-17T13:05:29.514Z,21.53
2022-10-17T13:08:00.612Z,21.58
2022-10-17T13:10:34.245Z,21.73
2022-10-17T13:13:10.177Z,21.82
2022-10-17T13:15:38.838Z,22.00
2022-10-17T13:18:07.318Z,22.06
2022-10-17T13:20:35.462Z,22.23
2022-10-17T13:23:03.859Z,22.26
2022-10-17T13:25:35.518Z,22.25
2022-10-17T13:28:14.366Z,22.33
2022-10-17T13:30:49.653Z,22.41
2022-10-17T13:33:32.187Z,22.43
2022-10-17T13:36:01.438Z,22.54
2022-10-17T13:38:34.890Z,22.54
2022-10-17T13:41:34.971Z,22.49
2022-10-17T13:44:04.496Z,22.41
2022-10-17T13:46:38.373Z,22.40
2022-10-17T13:49:16.599Z,22.46
2022-10-17T13:51:46.438Z,22.30
2022-10-17T13:54:32.932Z,22.37
2022-10-17T13:57:04.694Z,22.60
2022-10-17T13:59:40.169Z,22.75
2022-10-17T14:02:14.589Z,22.81
2022-10-17T14:05:14.977Z,22.77
2022-10-17T14:07:58.289Z,22.76
2022-10-17T14:10:26.664Z,22.81
2022-10-17T14:12:56.964Z,22.76
2022-10-17T14:15:28.268Z,22.81
2022-10-17T14:17:58.632Z,22.96
2022-10-17T14:23:36.297Z,23.19
2022-10-17T14:26:23.099Z,23.11
2022-10-17T14:29:05.676Z,23.10
2022-10-17T14:31:35.197Z,22.95
2022-10-17T14:34:04.064Z,22.80
2022-10-17T14:36:36.986Z,22.73
2022-10-17T14:39:10.583Z,22.76
2022-10-17T14:41:45.748Z,22.60
2022-10-17T14:44:31.798Z,22.55
2022-10-17T14:47:18.356Z,22.61
2022-10-17T14:49:52.698Z,22.36
2022-10-17T14:52:29.710Z,22.45
2022-10-17T14:54:59.154Z,22.52
2022-10-17T14:57:30.311Z,22.44
2022-10-17T15:00:00.113Z,22.50
2022-10-17T15:02:30.959Z,22.62
2022-10-17T15:04:59.178Z,22.58
2022-10-17T15:07:27.216Z,22.56
2022-10-17T15:09:55.253Z,22.39
2022-10-17T15:12:25.044Z,22.16
2022-10-17T15:14:54.147Z,22.06
2022-10-17T15:17:27.309Z,21.98
2022-10-17T15:19:55.904Z,22.01
2022-10-17T15:22:24.581Z,22.08
2022-10-17T15:24:52.538Z,22.11
2022-10-17T15:27:22.330Z,22.14
2022-10-17T15:29:51.585Z,22.11
2022-10-17T15:32:19.938Z,22.14
2022-10-17T15:34:49.355Z,22.18
2022-10-17T15:37:22.031Z,22.20
2022-10-17T15:39:53.609Z,22.03
2022-10-17T15:42:23.336Z,22.00
2022-10-17T15:44:51.312Z,22.13
2022-10-17T15:47:25.454Z,22.17
2022-10-17T15:49:55.993Z,22.05
2022-10-17T15:52:24.764Z,22.01
2022-10-17T15:54:53.094Z,21.96
2022-10-17T15:57:23.816Z,21.79
2022-10-17T15:59:53.125Z,21.68
2022-10-17T16:02:24.964Z,21.55
2022-10-17T16:04:54.744Z,21.38
2022-10-17T16:07:22.855Z,21.15
2022-10-17T16:09:50.832Z,21.10
2022-10-17T16:12:24.776Z,21.01
2022-10-17T16:14:52.714Z,20.86
2022-10-17T16:17:20.710Z,20.83
2022-10-17T16:19:48.633Z,20.84
2022-10-17T16:22:26.125Z,20.79
2022-10-17T16:24:58.629Z,20.80
2022-10-17T16:27:26.915Z,20.75
2022-10-17T16:29:54.872Z,20.69
2022-10-17T16:32:22.770Z,20.58
2022-10-17T16:34:50.724Z,20.61
2022-10-17T16:37:18.652Z,20.59
2022-10-17T16:39:52.368Z,20.45
2022-10-17T16:42:20.779Z,20.40
2022-10-17T16:44:49.323Z,20.42
2022-10-17T16:47:17.603Z,20.34
2022-10-17T16:49:45.826Z,20.33
2022-10-17T16:52:14.358Z,20.25
2022-10-17T16:54:42.394Z,20.14
2022-10-17T16:57:11.819Z,20.12
2022-10-17T16:59:39.899Z,20.12
2022-10-17T17:02:07.892Z,20.03
2022-10-17T17:04:35.863Z,19.94
2022-10-17T17:07:03.869Z,19.86
2022-10-17T17:09:31.898Z,19.76
2022-10-17T17:11:59.830Z,19.66
2022-10-17T17:14:30.238Z,19.56
2022-10-17T17:16:58.229Z,19.55
2022-10-17T17:19:26.192Z,19.50
2022-10-17T17:21:54.101Z,19.54
2022-10-17T17:24:22.544Z,19.55
2022-10-17T17:26:53.246Z,19.57
2022-10-17T17:29:23.499Z,19.54
2022-10-17T17:31:52.892Z,19.53
2022-10-17T17:34:20.936Z,19.44
2022-10-17T17:36:48.836Z,19.37
2022-10-17T17:39:17.053Z,19.33
2022-10-17T17:41:45.737Z,19.39
2022-10-17T17:44:16.762Z,19.36
2022-10-17T17:46:45.614Z,19.37
2022-10-17T17:49:15.076Z,19.32
2022-10-17T17:51:46.345Z,19.35
2022-10-17T17:54:15.123Z,19.40
2022-10-17T17:56:43.112Z,19.41
2022-10-17T17:59:13.873Z,19.33
2022-10-17T18:01:42.559Z,19.25
2022-10-17T18:04:10.998Z,19.28
2022-10-17T18:06:41.053Z,19.31
2022-10-17T18:09:09.998Z,19.32
2022-10-17T18:11:38.946Z,19.26
2022-10-17T18:14:08.486Z,19.24
2022-10-17T18:16:38.202Z,19.24
2022-10-17T18:19:08.973Z,19.20
2022-10-17T18:21:38.155Z,19.09
2022-10-17T18:24:08.590Z,19.01
2022-10-17T18:26:37.110Z,18.91
2022-10-17T18:29:05.664Z,18.87
2022-10-17T18:31:35.858Z,18.88
2022-10-17T18:34:05.526Z,18.86
2022-10-17T18:36:34.963Z,18.84
2022-10-17T18:39:03.597Z,18.80
2022-10-17T18:41:33.944Z,18.82
2022-10-17T18:44:02.955Z,18.83
2022-10-17T18:46:35.710Z,18.79
2022-10-17T18:49:04.730Z,18.76
2022-10-17T18:51:32.718Z,18.71
2022-10-17T18:54:02.324Z,18.68
2022-10-17T18:56:32.674Z,18.69
2022-10-17T18:59:00.677Z,18.66
2022-10-17T19:01:28.723Z,18.61
2022-10-17T19:03:58.181Z,18.59
2022-10-17T19:06:28.171Z,18.61
2022-10-17T19:08:56.093Z,18.58
2022-10-17T19:11:25.822Z,18.55
2022-10-17T19:13:57.061Z,18.53
2022-10-17T19:16:27.184Z,18.50
2022-10-17T19:18:57.039Z,18.48
2022-10-17T19:21:25.726Z,18.48
2022-10-17T19:23:55.363Z,18.45
2022-10-17T19:26:24.016Z,18.42
2022-10-17T19:28:53.838Z,18.38
2022-10-17T19:31:27.127Z,18.38
2022-10-17T19:33:56.700Z,18.39
2022-10-17T19:36:30.413Z,18.40
2022-10-17T19:39:02.524Z,18.42
2022-10-17T19:41:30.466Z,18.41
2022-10-17T19:43:58.472Z,18.37
2022-10-17T19:46:29.310Z,18.33
2022-10-17T19:48:57.932Z,18.26
2022-10-17T19:51:26.418Z,18.24
2022-10-17T19:53:55.737Z,18.27
2022-10-17T19:56:25.186Z,18.30
2022-10-17T19:58:55.353Z,18.29
2022-10-17T20:01:25.140Z,18.31
2022-10-17T20:03:55.177Z,18.33
2022-10-17T20:06:23.595Z,18.24
2022-10-17T20:08:51.691Z,18.11
2022-10-17T20:11:21.680Z,18.07
2022-10-17T20:13:50.199Z,18.07
2022-10-17T20:16:21.338Z,17.93
2022-10-17T20:18:50.239Z,17.82
2022-10-17T20:21:22.357Z,17.87
2022-10-17T20:23:50.687Z,17.91
2022-10-17T20:29:11.879Z,17.94
2022-10-17T20:31:41.456Z,17.98
2022-10-17T20:34:12.517Z,17.95
2022-10-17T20:36:42.468Z,17.96
2022-10-17T20:39:11.890Z,17.96
2022-10-17T20:41:40.061Z,17.97
2022-10-17T20:44:08.916Z,17.97
2022-10-17T20:46:39.824Z,17.95
2022-10-17T20:49:15.387Z,17.91
2022-10-17T20:51:44.885Z,17.91
2022-10-17T20:54:12.933Z,17.90
2022-10-17T20:56:41.165Z,17.89
2022-10-17T20:59:13.144Z,17.92
2022-10-17T21:01:41.198Z,17.88
2022-10-17T21:04:44.067Z,17.86
2022-10-17T21:06:59.249Z,17.88
2022-10-17T21:09:27.617Z,17.90
2022-10-17T21:11:55.706Z,17.91
2022-10-17T21:14:25.339Z,17.93
2022-10-17T21:16:53.592Z,17.94
2022-10-17T21:19:22.778Z,17.86
2022-10-17T21:21:51.438Z,17.78
2022-10-17T21:24:21.006Z,17.78
2022-10-17T21:26:55.388Z,17.77
2022-10-17T21:29:24.744Z,17.81
2022-10-17T21:31:53.027Z,17.82
2022-10-17T21:34:24.603Z,17.81
2022-10-17T21:36:53.430Z,17.78
2022-10-17T21:39:24.247Z,17.77
2022-10-17T21:41:52.625Z,17.76
2022-10-17T21:44:24.025Z,17.77
2022-10-17T21:46:52.791Z,17.73
2022-10-17T21:49:22.764Z,17.74
2022-10-17T21:51:51.469Z,17.77
2022-10-17T21:54:21.033Z,17.79
2022-10-17T21:56:50.693Z,17.79
2022-10-17T21:59:18.698Z,17.80
2022-10-17T22:01:47.346Z,17.80
2022-10-17T22:04:17.202Z,17.80
2022-10-17T22:06:47.144Z,17.66
2022-10-17T22:09:17.348Z,17.55
2022-10-17T22:11:47.372Z,17.61
2022-10-17T22:14:21.456Z,17.67
2022-10-17T22:16:50.374Z,17.68
2022-10-17T22:19:20.862Z,17.70
2022-10-17T22:21:48.867Z,17.71
2022-10-17T22:24:18.568Z,17.75
2022-10-17T22:26:46.661Z,17.80
2022-10-17T22:29:16.187Z,17.78
2022-10-17T22:31:44.191Z,17.76
2022-10-17T22:34:13.807Z,17.75
2022-10-17T22:36:42.433Z,17.77
2022-10-17T22:39:10.680Z,17.80
2022-10-17T22:41:38.655Z,17.80
2022-10-17T22:44:06.982Z,17.78
2022-10-17T22:46:36.464Z,17.76
2022-10-17T22:49:05.084Z,17.76
2022-10-17T22:51:33.367Z,17.54
2022-10-17T22:54:01.354Z,17.39
2022-10-17T22:56:29.359Z,17.42
2022-10-17T22:58:57.378Z,17.44
2022-10-17T23:01:26.836Z,17.44
2022-10-17T23:03:56.358Z,17.40
2022-10-17T23:06:24.633Z,17.31
2022-10-17T23:08:52.725Z,17.17
2022-10-17T23:11:21.314Z,17.08
2022-10-17T23:13:49.384Z,17.06
2022-10-17T23:16:17.400Z,17.02
2022-10-17T23:18:45.364Z,17.03
2022-10-17T23:21:14.752Z,17.05
2022-10-17T23:23:42.729Z,17.08
2022-10-17T23:26:12.424Z,17.13
2022-10-17T23:28:41.096Z,17.12
2022-10-17T23:31:14.051Z,17.14
2022-10-17T23:33:42.415Z,17.15
2022-10-17T23:36:11.347Z,17.13
2022-10-17T23:38:41.455Z,17.15
2022-10-17T23:41:09.951Z,17.11
2022-10-17T23:43:38.779Z,17.04
2022-10-17T23:46:07.861Z,17.05
2022-10-17T23:48:35.978Z,17.05
2022-10-17T23:51:04.533Z,17.09
2022-10-17T23:53:32.653Z,17.10
2022-10-17T23:56:02.027Z,17.02
2022-10-17T23:58:30.296Z,17.01
